createdAt,value
2022-09-22T00:01:58.786Z,6.00
2022-09-22T00:04:03.596Z,5.90
2022-09-22T00:06:06.674Z,5.90
2022-09-22T00:08:08.610Z,5.90
2022-09-22T00:10:10.235Z,6.00
2022-09-22T00:12:13.495Z,5.80
2022-09-22T00:14:16.949Z,5.80
2022-09-22T00:16:20.286Z,5.80
2022-09-22T00:18:21.967Z,5.80
2022-09-22T00:20:23.593Z,5.70
2022-09-22T00:22:26.079Z,5.80
2022-09-22T00:24:28.206Z,5.70
2022-09-22T00:26:31.203Z,5.80
2022-09-22T00:28:34.056Z,5.70
2022-09-22T00:30:39.524Z,5.60
2022-09-22T00:32:41.154Z,5.80
2022-09-22T00:34:42.766Z,5.60
2022-09-22T00:36:44.404Z,5.60
2022-09-22T00:38:46.699Z,5.50
2022-09-22T00:40:48.714Z,5.50
2022-09-22T00:42:50.321Z,5.50
2022-09-22T00:44:52.050Z,5.50
2022-09-22T00:46:56.265Z,5.70
2022-09-22T00:48:59.358Z,5.50
2022-09-22T00:51:02.757Z,5.40
2022-09-22T00:53:09.706Z,5.40
2022-09-22T00:55:21.514Z,5.40
2022-09-22T00:57:25.245Z,5.30
2022-09-22T00:59:27.045Z,5.30
2022-09-22T01:01:28.699Z,5.30
2022-09-22T01:03:30.495Z,5.30
2022-09-22T01:05:33.805Z,5.30
2022-09-22T01:07:35.550Z,5.20
2022-09-22T01:09:37.309Z,5.20
2022-09-22T01:11:39.934Z,5.20
2022-09-22T01:13:48.352Z,5.20
2022-09-22T01:15:53.085Z,5.20
2022-09-22T01:18:04.767Z,5.20
2022-09-22T01:20:06.500Z,5.20
2022-09-22T01:22:23.194Z,5.20
2022-09-22T01:24:56.786Z,5.10
2022-09-22T01:27:23.631Z,5.10
2022-09-22T01:30:00.840Z,5.10
2022-09-22T01:32:19.259Z,5.10
2022-09-22T01:34:23.924Z,5.00
2022-09-22T01:36:40.440Z,5.00
2022-09-22T01:38:47.347Z,5.00
2022-09-22T01:41:01.414Z,5.00
2022-09-22T01:43:21.887Z,4.90
2022-09-22T01:45:26.129Z,4.90
2022-09-22T01:47:40.571Z,4.90
2022-09-22T01:49:45.167Z,4.90
2022-09-22T01:52:00.505Z,4.80
2022-09-22T01:54:17.095Z,4.80
2022-09-22T01:56:19.944Z,4.80
2022-09-22T01:58:25.213Z,4.80
2022-09-22T02:00:27.346Z,4.80
2022-09-22T02:02:31.802Z,4.90
2022-09-22T02:05:00.069Z,4.90
2022-09-22T02:07:09.924Z,4.70
2022-09-22T02:09:14.597Z,4.70
2022-09-22T02:11:16.687Z,4.60
2022-09-22T02:13:18.470Z,4.70
2022-09-22T02:15:38.934Z,4.60
2022-09-22T02:17:40.649Z,4.60
2022-09-22T02:19:42.655Z,4.60
2022-09-22T02:21:45.595Z,4.60
2022-09-22T02:23:47.735Z,4.60
2022-09-22T02:25:49.637Z,4.50
2022-09-22T02:27:55.111Z,4.50
2022-09-22T02:30:00.864Z,4.50
2022-09-22T02:32:05.550Z,4.60
2022-09-22T02:34:08.770Z,4.50
2022-09-22T02:36:19.885Z,4.50
2022-09-22T02:38:23.678Z,4.50
2022-09-22T02:40:44.185Z,4.50
2022-09-22T02:42:48.255Z,4.40
2022-09-22T02:45:13.216Z,4.50
2022-09-22T02:47:32.316Z,4.40
2022-09-22T02:49:34.427Z,4.40
2022-09-22T02:51:36.286Z,4.40
2022-09-22T02:53:37.884Z,4.50
2022-09-22T02:55:40.122Z,4.30
2022-09-22T02:57:41.746Z,4.30
2022-09-22T02:59:43.456Z,4.30
2022-09-22T03:01:45.156Z,4.30
2022-09-22T03:03:46.823Z,4.30
2022-09-22T03:05:48.449Z,4.30
2022-09-22T03:07:50.075Z,4.20
2022-09-22T03:09:51.677Z,4.20
2022-09-22T03:11:53.505Z,4.20
2022-09-22T03:13:55.205Z,4.20
2022-09-22T03:15:56.925Z,4.20
2022-09-22T03:17:58.623Z,4.20
2022-09-22T03:20:00.240Z,4.10
2022-09-22T03:22:01.900Z,4.10
2022-09-22T03:24:03.964Z,4.10
2022-09-22T03:26:05.549Z,4.10
2022-09-22T03:28:07.356Z,4.10
2022-09-22T03:30:09.659Z,4.10
2022-09-22T03:32:11.249Z,4.00
2022-09-22T03:34:12.893Z,4.00
2022-09-22T03:36:14.525Z,4.20
2022-09-22T03:38:16.142Z,4.10
2022-09-22T03:40:17.855Z,4.10
2022-09-22T03:42:19.626Z,4.20
2022-09-22T03:44:21.266Z,4.00
2022-09-22T03:46:23.000Z,3.90
2022-09-22T03:48:25.673Z,3.90
2022-09-22T03:50:28.380Z,4.00
2022-09-22T03:52:30.008Z,3.90
2022-09-22T03:54:32.157Z,3.90
2022-09-22T03:56:33.781Z,4.10
2022-09-22T03:58:36.258Z,3.90
2022-09-22T04:00:38.474Z,3.90
2022-09-22T04:02:40.673Z,4.00
2022-09-22T04:04:42.551Z,3.90
2022-09-22T04:06:44.178Z,3.90
2022-09-22T04:08:45.792Z,3.80
2022-09-22T04:10:47.394Z,3.80
2022-09-22T04:12:49.778Z,3.80
2022-09-22T04:14:51.475Z,3.80
2022-09-22T04:16:53.775Z,3.80
2022-09-22T04:18:55.900Z,3.80
2022-09-22T04:21:01.174Z,3.70
2022-09-22T04:23:02.766Z,3.70
2022-09-22T04:25:05.152Z,4.00
2022-09-22T04:27:19.546Z,3.70
2022-09-22T04:29:22.149Z,3.70
2022-09-22T04:31:23.915Z,3.70
2022-09-22T04:33:25.750Z,3.70
2022-09-22T04:35:28.438Z,3.70
2022-09-22T04:37:30.064Z,3.70
2022-09-22T04:39:31.730Z,3.70
2022-09-22T04:41:33.392Z,3.80
2022-09-22T04:43:35.086Z,3.70
2022-09-22T04:45:39.666Z,3.60
2022-09-22T04:47:43.928Z,3.80
2022-09-22T04:49:45.565Z,3.60
2022-09-22T04:51:47.359Z,3.60
2022-09-22T04:53:48.986Z,3.60
2022-09-22T04:55:50.760Z,3.60
2022-09-22T04:57:53.410Z,3.60
2022-09-22T04:59:55.182Z,3.50
2022-09-22T05:01:56.760Z,3.60
2022-09-22T05:03:58.376Z,3.60
2022-09-22T05:06:00.072Z,3.60
2022-09-22T05:08:01.792Z,3.50
2022-09-22T05:10:05.693Z,3.60
2022-09-22T05:12:07.416Z,3.60
2022-09-22T05:14:09.188Z,3.60
2022-09-22T05:16:10.971Z,3.60
2022-09-22T05:18:12.692Z,3.50
2022-09-22T05:20:14.550Z,3.50
2022-09-22T05:22:16.376Z,3.50
2022-09-22T05:24:18.171Z,3.70
2022-09-22T05:26:19.883Z,3.60
2022-09-22T05:28:24.361Z,3.60
2022-09-22T05:30:26.648Z,3.60
2022-09-22T05:32:28.260Z,3.50
2022-09-22T05:34:30.016Z,3.60
2022-09-22T05:36:31.674Z,3.60
2022-09-22T05:38:33.368Z,3.60
2022-09-22T05:40:35.233Z,3.60
2022-09-22T05:42:41.116Z,3.60
2022-09-22T05:44:42.730Z,3.60
2022-09-22T05:46:46.636Z,3.60
2022-09-22T05:48:48.260Z,3.80
2022-09-22T05:50:49.916Z,3.70
2022-09-22T05:52:51.857Z,3.70
2022-09-22T05:54:53.487Z,3.80
2022-09-22T05:56:55.473Z,3.80
2022-09-22T05:58:57.179Z,3.90
2022-09-22T06:00:59.033Z,3.90
2022-09-22T06:03:00.947Z,3.90
2022-09-22T06:05:02.671Z,3.90
2022-09-22T06:07:04.300Z,4.00
2022-09-22T06:09:06.078Z,4.00
2022-09-22T06:11:08.446Z,4.00
2022-09-22T06:13:10.429Z,4.10
2022-09-22T06:15:12.341Z,4.10
2022-09-22T06:17:14.030Z,4.20
2022-09-22T06:19:15.696Z,4.20
2022-09-22T06:21:17.404Z,4.20
2022-09-22T06:23:19.093Z,4.30
2022-09-22T06:25:21.269Z,4.30
2022-09-22T06:27:22.861Z,4.40
2022-09-22T06:29:24.528Z,4.40
2022-09-22T06:31:26.189Z,4.50
2022-09-22T06:33:28.502Z,4.50
2022-09-22T06:35:39.731Z,4.60
2022-09-22T06:37:41.920Z,4.60
2022-09-22T06:39:43.584Z,4.70
2022-09-22T06:41:45.196Z,4.80
2022-09-22T06:43:48.762Z,4.80
2022-09-22T06:45:53.885Z,5.00
2022-09-22T06:47:59.056Z,5.00
2022-09-22T06:50:05.694Z,5.10
2022-09-22T06:52:09.749Z,5.10
2022-09-22T06:54:11.670Z,5.20
2022-09-22T06:56:13.326Z,5.30
2022-09-22T06:58:15.518Z,5.40
2022-09-22T07:00:17.939Z,5.50
2022-09-22T07:02:20.373Z,5.50
2022-09-22T07:04:23.309Z,5.60
2022-09-22T07:06:26.253Z,5.70
2022-09-22T07:08:29.398Z,5.60
2022-09-22T07:10:32.039Z,5.80
2022-09-22T07:12:34.088Z,5.90
2022-09-22T07:14:35.720Z,6.00
2022-09-22T07:16:38.022Z,6.00
2022-09-22T07:18:40.559Z,6.10
2022-09-22T07:20:45.276Z,6.20
2022-09-22T07:22:46.891Z,6.40
2022-09-22T07:24:48.497Z,6.40
2022-09-22T07:26:51.157Z,6.50
2022-09-22T07:28:53.936Z,6.60
2022-09-22T07:30:59.073Z,6.80
2022-09-22T07:33:01.201Z,6.70
2022-09-22T07:35:02.897Z,6.80
2022-09-22T07:37:04.590Z,6.90
2022-09-22T07:39:07.634Z,7.00
2022-09-22T07:41:12.048Z,7.10
2022-09-22T07:43:13.629Z,7.20
2022-09-22T07:45:15.416Z,7.30
2022-09-22T07:47:36.971Z,7.40
2022-09-22T07:49:38.621Z,7.50
2022-09-22T07:51:40.226Z,7.60
2022-09-22T07:53:42.119Z,7.70
2022-09-22T07:55:43.721Z,7.80
2022-09-22T07:57:47.054Z,7.90
2022-09-22T07:59:48.756Z,8.00
2022-09-22T08:01:51.713Z,8.20
2022-09-22T08:03:53.426Z,8.30
2022-09-22T08:06:00.391Z,8.30
2022-09-22T08:08:06.017Z,8.40
2022-09-22T08:10:08.090Z,8.50
2022-09-22T08:12:10.560Z,8.60
2022-09-22T08:14:12.607Z,8.70
2022-09-22T08:16:14.541Z,8.70
2022-09-22T08:18:16.158Z,8.80
2022-09-22T08:20:18.693Z,8.90
2022-09-22T08:22:20.413Z,9.00
2022-09-22T08:24:22.861Z,9.10
2022-09-22T08:26:25.052Z,9.20
2022-09-22T08:28:26.735Z,9.20
2022-09-22T08:30:28.406Z,9.30
2022-09-22T08:32:30.430Z,9.40
2022-09-22T08:34:32.058Z,9.50
2022-09-22T08:36:34.283Z,9.60
2022-09-22T08:38:36.045Z,9.70
2022-09-22T08:40:39.084Z,9.80
2022-09-22T08:42:41.223Z,9.90
2022-09-22T08:44:50.576Z,10.00
2022-09-22T08:46:53.494Z,10.00
2022-09-22T08:49:16.958Z,10.10
2022-09-22T08:51:52.960Z,10.20
2022-09-22T08:54:00.944Z,10.30
2022-09-22T08:56:30.378Z,10.40
2022-09-22T08:58:45.178Z,10.50
2022-09-22T09:00:50.258Z,10.60
2022-09-22T09:03:04.700Z,10.70
2022-09-22T09:05:25.189Z,10.80
2022-09-22T09:07:43.155Z,10.90
2022-09-22T09:10:03.574Z,11.00
2022-09-22T09:12:23.079Z,11.00
2022-09-22T09:14:30.576Z,11.10
2022-09-22T09:16:41.411Z,11.20
2022-09-22T09:18:45.507Z,11.30
2022-09-22T09:20:48.053Z,11.40
2022-09-22T09:22:56.700Z,11.40
2022-09-22T09:27:29.293Z,11.70
2022-09-22T09:29:34.101Z,11.70
2022-09-22T09:31:37.444Z,11.80
2022-09-22T09:33:58.557Z,11.90
2022-09-22T09:36:02.110Z,12.00
2022-09-22T09:38:09.434Z,12.10
2022-09-22T09:40:15.347Z,12.10
2022-09-22T09:42:28.879Z,12.20
2022-09-22T09:44:31.883Z,12.30
2022-09-22T09:46:52.294Z,12.40
2022-09-22T09:49:00.173Z,12.40
2022-09-22T09:51:05.563Z,12.50
2022-09-22T09:53:27.123Z,12.50
2022-09-22T09:55:28.736Z,12.60
2022-09-22T09:57:30.376Z,12.70
2022-09-22T09:59:50.794Z,12.70
2022-09-22T10:01:54.254Z,12.80
2022-09-22T10:03:56.844Z,12.80
2022-09-22T10:06:07.184Z,12.90
2022-09-22T10:08:20.136Z,13.00
2022-09-22T10:10:35.771Z,13.10
2022-09-22T10:12:37.375Z,13.10
2022-09-22T10:14:39.021Z,13.20
2022-09-22T10:16:50.688Z,13.20
2022-09-22T10:19:11.099Z,13.30
2022-09-22T10:21:15.811Z,13.40
2022-09-22T10:23:19.710Z,13.40
2022-09-22T10:25:24.071Z,13.40
2022-09-22T10:27:26.947Z,13.40
2022-09-22T10:29:28.754Z,13.50
2022-09-22T10:31:31.313Z,13.50
2022-09-22T10:33:33.272Z,13.50
2022-09-22T10:35:36.309Z,13.50
2022-09-22T10:37:38.218Z,13.60
2022-09-22T10:39:45.962Z,13.60
2022-09-22T10:41:48.568Z,13.70
2022-09-22T10:43:52.189Z,13.70
2022-09-22T10:46:03.416Z,13.70
2022-09-22T10:48:25.651Z,13.70
2022-09-22T10:50:31.424Z,13.70
2022-09-22T10:52:51.383Z,13.80
2022-09-22T10:55:06.622Z,13.80
2022-09-22T10:57:27.292Z,13.90
2022-09-22T10:59:46.468Z,13.90
2022-09-22T11:01:54.256Z,13.90
2022-09-22T11:04:17.377Z,13.90
2022-09-22T11:06:56.821Z,13.90
2022-09-22T11:09:32.849Z,13.90
2022-09-22T11:12:01.665Z,14.00
2022-09-22T11:14:09.118Z,14.00
2022-09-22T11:16:11.612Z,14.00
2022-09-22T11:18:20.339Z,14.10
2022-09-22T11:20:32.288Z,14.10
2022-09-22T11:22:36.632Z,14.10
2022-09-22T11:25:01.402Z,14.20
2022-09-22T11:27:03.729Z,14.20
2022-09-22T11:29:23.529Z,14.20
2022-09-22T11:31:27.686Z,14.20
2022-09-22T11:33:47.126Z,14.30
2022-09-22T11:35:54.807Z,14.40
2022-09-22T11:38:11.401Z,14.40
2022-09-22T11:40:33.437Z,14.40
2022-09-22T11:42:36.003Z,14.50
2022-09-22T11:44:43.778Z,14.40
2022-09-22T11:46:57.247Z,14.50
2022-09-22T11:49:17.150Z,14.50
2022-09-22T11:51:43.838Z,14.50
2022-09-22T11:53:57.099Z,14.60
2022-09-22T11:56:01.304Z,14.70
2022-09-22T11:58:09.792Z,14.70
2022-09-22T12:00:15.410Z,14.70
2022-09-22T12:02:17.591Z,14.80
2022-09-22T12:04:21.763Z,14.80
2022-09-22T12:06:27.586Z,14.90
2022-09-22T12:08:31.691Z,15.00
2022-09-22T12:10:38.103Z,15.00
2022-09-22T12:12:43.795Z,15.10
2022-09-22T12:14:56.936Z,15.10
2022-09-22T12:17:01.889Z,15.20
2022-09-22T12:19:03.544Z,15.20
2022-09-22T12:21:05.388Z,15.30
2022-09-22T12:23:08.375Z,15.30
2022-09-22T12:25:20.765Z,15.40
2022-09-22T12:27:28.354Z,15.40
2022-09-22T12:29:30.975Z,15.50
2022-09-22T12:31:36.854Z,15.50
2022-09-22T12:33:39.934Z,15.60
2022-09-22T12:35:44.093Z,15.70
2022-09-22T12:37:45.777Z,15.70
2022-09-22T12:39:48.250Z,15.80
2022-09-22T12:41:49.814Z,15.80
2022-09-22T12:43:51.509Z,15.90
2022-09-22T12:45:54.579Z,16.00
2022-09-22T12:47:57.621Z,16.00
2022-09-22T12:50:00.880Z,16.20
2022-09-22T12:52:02.587Z,16.20
2022-09-22T12:54:22.594Z,16.30
2022-09-22T12:56:42.496Z,16.40
2022-09-22T12:58:44.248Z,16.50
2022-09-22T13:00:46.386Z,16.60
2022-09-22T13:02:49.836Z,16.70
2022-09-22T13:04:55.471Z,16.80
2022-09-22T13:06:57.979Z,16.80
2022-09-22T13:09:00.980Z,16.80
2022-09-22T13:11:03.851Z,16.90
2022-09-22T13:13:12.250Z,16.90
2022-09-22T13:15:17.440Z,17.00
2022-09-22T13:17:37.170Z,17.20
2022-09-22T13:19:52.609Z,17.30
2022-09-22T13:21:54.291Z,17.40
2022-09-22T13:23:58.896Z,17.50
2022-09-22T13:26:07.915Z,17.60
2022-09-22T13:28:12.874Z,17.60
2022-09-22T13:30:15.132Z,17.70
2022-09-22T13:32:26.531Z,17.70
2022-09-22T13:34:33.309Z,17.80
2022-09-22T13:36:34.934Z,17.90
2022-09-22T13:38:41.780Z,17.90
2022-09-22T13:40:48.461Z,18.00
2022-09-22T13:42:50.136Z,18.00
2022-09-22T13:44:56.632Z,18.00
2022-09-22T13:47:00.849Z,18.10
2022-09-22T13:49:06.181Z,18.10
2022-09-22T13:51:09.468Z,18.20
2022-09-22T13:53:15.611Z,18.30
2022-09-22T13:55:34.807Z,18.40
2022-09-22T13:57:37.613Z,18.50
2022-09-22T13:59:41.301Z,18.50
2022-09-22T14:01:47.220Z,18.70
2022-09-22T14:03:49.649Z,18.80
2022-09-22T14:05:54.068Z,18.90
2022-09-22T14:08:11.213Z,19.10
2022-09-22T14:10:17.777Z,19.10
2022-09-22T14:12:19.894Z,19.20
2022-09-22T14:14:25.690Z,19.30
2022-09-22T14:16:33.204Z,19.30
2022-09-22T14:18:39.235Z,19.40
2022-09-22T14:20:41.733Z,19.50
2022-09-22T14:22:43.582Z,19.50
2022-09-22T14:24:55.565Z,19.60
2022-09-22T14:27:03.707Z,19.70
2022-09-22T14:29:15.251Z,19.80
2022-09-22T14:31:25.191Z,19.80
2022-09-22T14:33:31.545Z,20.00
2022-09-22T14:35:36.167Z,20.10
2022-09-22T14:37:41.928Z,20.10
2022-09-22T14:39:44.501Z,20.10
2022-09-22T14:41:56.526Z,20.10
2022-09-22T14:43:58.136Z,20.10
2022-09-22T14:46:02.344Z,20.10
2022-09-22T14:48:10.200Z,20.10
2022-09-22T14:50:20.270Z,20.10
2022-09-22T14:52:28.796Z,20.10
2022-09-22T14:54:31.951Z,20.20
2022-09-22T14:56:34.081Z,20.20
2022-09-22T14:58:42.667Z,20.30
2022-09-22T15:01:15.343Z,20.40
2022-09-22T15:03:19.097Z,20.50
2022-09-22T15:05:30.420Z,20.50
2022-09-22T15:07:34.271Z,20.60
2022-09-22T15:09:40.202Z,20.60
2022-09-22T15:11:47.141Z,20.50
2022-09-22T15:13:52.768Z,20.50
2022-09-22T15:15:54.331Z,20.60
2022-09-22T15:18:15.983Z,20.50
2022-09-22T15:20:18.423Z,20.50
2022-09-22T15:22:20.171Z,20.50
2022-09-22T15:24:26.166Z,20.40
2022-09-22T15:26:28.890Z,20.30
2022-09-22T15:28:31.879Z,20.20
2022-09-22T15:30:33.558Z,20.10
2022-09-22T15:32:36.796Z,20.10
2022-09-22T15:34:45.195Z,20.00
2022-09-22T15:36:46.918Z,19.90
2022-09-22T15:38:49.000Z,19.80
2022-09-22T15:40:50.860Z,19.70
2022-09-22T15:43:11.709Z,19.60
2022-09-22T15:45:15.769Z,19.50
2022-09-22T15:47:17.473Z,19.30
2022-09-22T15:49:22.545Z,19.20
2022-09-22T15:51:24.178Z,19.20
2022-09-22T15:53:26.281Z,19.00
2022-09-22T15:55:28.043Z,18.90
2022-09-22T15:57:30.571Z,18.80
2022-09-22T15:59:33.104Z,18.70
2022-09-22T16:01:34.750Z,18.60
2022-09-22T16:03:41.040Z,18.50
2022-09-22T16:05:43.617Z,18.40
2022-09-22T16:07:49.755Z,18.30
2022-09-22T16:09:51.415Z,18.10
2022-09-22T16:11:53.841Z,17.90
2022-09-22T16:14:00.653Z,17.90
2022-09-22T16:16:05.335Z,17.70
2022-09-22T16:18:08.690Z,17.60
2022-09-22T16:20:14.865Z,17.50
2022-09-22T16:22:17.145Z,17.40
2022-09-22T16:24:19.050Z,17.20
2022-09-22T16:26:21.116Z,17.10
2022-09-22T16:28:22.692Z,17.00
2022-09-22T16:30:26.011Z,16.80
2022-09-22T16:32:28.077Z,16.70
2022-09-22T16:34:30.053Z,16.50
2022-09-22T16:36:33.151Z,16.40
2022-09-22T16:38:35.143Z,16.20
2022-09-22T16:40:36.795Z,16.10
2022-09-22T16:42:39.724Z,16.00
2022-09-22T16:44:42.300Z,15.80
2022-09-22T16:46:44.049Z,15.60
2022-09-22T16:48:45.711Z,15.50
2022-09-22T16:50:47.334Z,15.40
2022-09-22T16:52:48.950Z,15.20
2022-09-22T16:54:50.833Z,15.10
2022-09-22T16:56:53.943Z,15.00
2022-09-22T16:58:56.264Z,14.90
2022-09-22T17:01:01.767Z,14.90
2022-09-22T17:03:03.758Z,14.70
2022-09-22T17:05:07.003Z,14.60
2022-09-22T17:07:08.632Z,14.60
2022-09-22T17:09:11.024Z,14.40
2022-09-22T17:11:15.559Z,14.30
2022-09-22T17:13:18.117Z,14.10
2022-09-22T17:15:20.119Z,14.00
2022-09-22T17:17:21.738Z,13.90
2022-09-22T17:19:26.731Z,13.80
2022-09-22T17:21:33.489Z,13.70
2022-09-22T17:23:36.623Z,13.60
2022-09-22T17:25:38.321Z,13.50
2022-09-22T17:27:40.485Z,13.40
2022-09-22T17:29:42.415Z,13.20
2022-09-22T17:31:46.101Z,13.10
2022-09-22T17:33:51.990Z,13.00
2022-09-22T17:36:00.969Z,12.90
2022-09-22T17:38:02.662Z,12.80
2022-09-22T17:40:04.631Z,12.70
2022-09-22T17:42:06.608Z,12.60
2022-09-22T17:44:09.198Z,12.50
2022-09-22T17:46:12.873Z,12.40
2022-09-22T17:48:33.144Z,12.30
2022-09-22T17:50:53.102Z,12.20
2022-09-22T17:53:13.545Z,12.10
2022-09-22T17:55:20.283Z,12.00
2022-09-22T17:57:23.502Z,11.90
2022-09-22T17:59:25.235Z,11.80
2022-09-22T18:01:28.067Z,11.70
2022-09-22T18:03:29.719Z,11.70
2022-09-22T18:05:32.206Z,11.60
2022-09-22T18:07:35.083Z,11.50
2022-09-22T18:09:37.583Z,11.60
2022-09-22T18:11:42.947Z,11.40
2022-09-22T18:13:45.071Z,11.30
2022-09-22T18:15:47.565Z,11.20
2022-09-22T18:17:49.314Z,11.10
2022-09-22T18:19:53.661Z,11.00
2022-09-22T18:21:55.580Z,11.00
2022-09-22T18:23:57.358Z,10.90
2022-09-22T18:26:01.671Z,10.80
2022-09-22T18:28:05.626Z,10.80
2022-09-22T18:30:07.778Z,10.70
2022-09-22T18:32:09.559Z,10.70
2022-09-22T18:34:11.349Z,10.60
2022-09-22T18:36:13.050Z,10.50
2022-09-22T18:38:14.934Z,10.50
2022-09-22T18:40:17.111Z,10.40
2022-09-22T18:42:19.572Z,10.40
2022-09-22T18:44:21.994Z,10.30
2022-09-22T18:46:23.860Z,10.30
2022-09-22T18:48:25.681Z,10.20
2022-09-22T18:50:34.199Z,10.20
2022-09-22T18:52:36.777Z,10.10
2022-09-22T18:54:42.950Z,10.10
2022-09-22T18:56:45.793Z,10.10
2022-09-22T18:58:47.399Z,10.00
2022-09-22T19:00:51.016Z,9.90
2022-09-22T19:02:52.752Z,9.90
2022-09-22T19:04:54.426Z,9.80
2022-09-22T19:07:15.393Z,9.80
2022-09-22T19:09:17.827Z,9.80
2022-09-22T19:11:19.543Z,9.70
2022-09-22T19:13:21.748Z,9.60
2022-09-22T19:15:25.260Z,9.60
2022-09-22T19:17:27.136Z,9.60
2022-09-22T19:19:28.863Z,9.50
2022-09-22T19:21:31.330Z,9.50
2022-09-22T19:23:33.051Z,9.50
2022-09-22T19:25:34.704Z,9.40
2022-09-22T19:27:36.606Z,9.40
2022-09-22T19:29:38.250Z,9.30
2022-09-22T19:31:41.218Z,9.40
2022-09-22T19:33:42.866Z,9.20
2022-09-22T19:35:44.481Z,9.20
2022-09-22T19:37:46.963Z,9.20
2022-09-22T19:39:50.319Z,9.10
2022-09-22T19:41:52.587Z,9.10
2022-09-22T19:43:54.951Z,9.00
2022-09-22T19:45:56.829Z,9.00
2022-09-22T19:47:58.617Z,9.00
2022-09-22T19:50:00.262Z,8.90
2022-09-22T19:52:02.055Z,8.90
2022-09-22T19:54:03.802Z,8.80
2022-09-22T19:56:06.534Z,8.80
2022-09-22T19:58:08.173Z,8.80
2022-09-22T20:00:12.580Z,8.70
2022-09-22T20:02:15.086Z,8.70
2022-09-22T20:04:18.222Z,8.70
2022-09-22T20:06:19.835Z,8.60
2022-09-22T20:08:22.648Z,8.60
2022-09-22T20:10:24.787Z,8.50
2022-09-22T20:12:26.384Z,8.50
2022-09-22T20:14:31.318Z,8.50
2022-09-22T20:16:33.186Z,8.50
2022-09-22T20:18:38.270Z,8.40
2022-09-22T20:20:44.697Z,8.40
2022-09-22T20:22:47.068Z,8.40
2022-09-22T20:24:54.145Z,8.30
2022-09-22T20:26:55.887Z,8.30
2022-09-22T20:28:58.045Z,8.30
2022-09-22T20:30:59.794Z,8.30
2022-09-22T20:33:01.452Z,8.30
2022-09-22T20:35:03.387Z,8.20
2022-09-22T20:37:04.970Z,8.20
2022-09-22T20:39:06.641Z,8.10
2022-09-22T20:41:16.903Z,8.10
2022-09-22T20:43:18.546Z,8.10
2022-09-22T20:45:22.806Z,8.00
2022-09-22T20:47:25.238Z,8.00
2022-09-22T20:49:26.969Z,8.10
2022-09-22T20:51:28.606Z,7.90
2022-09-22T20:53:32.423Z,7.90
2022-09-22T20:55:34.075Z,7.90
2022-09-22T20:57:35.968Z,7.80
2022-09-22T20:59:37.722Z,7.80
2022-09-22T21:01:39.543Z,7.80
2022-09-22T21:03:41.490Z,7.70
2022-09-22T21:05:43.157Z,7.80
2022-09-22T21:07:44.777Z,7.70
2022-09-22T21:10:04.746Z,7.70
2022-09-22T21:12:06.811Z,7.70
2022-09-22T21:14:11.895Z,7.60
2022-09-22T21:16:13.958Z,7.70
2022-09-22T21:18:16.367Z,7.60
2022-09-22T21:20:18.035Z,7.50
2022-09-22T21:22:19.646Z,7.50
2022-09-22T21:24:21.217Z,7.50
2022-09-22T21:26:23.208Z,7.50
2022-09-22T21:28:24.874Z,7.50
2022-09-22T21:30:26.471Z,7.40
2022-09-22T21:32:28.126Z,7.40
2022-09-22T21:34:29.942Z,7.30
2022-09-22T21:36:31.566Z,7.30
2022-09-22T21:38:33.161Z,7.30
2022-09-22T21:40:34.818Z,7.30
2022-09-22T21:42:36.745Z,7.30
2022-09-22T21:44:39.117Z,7.20
2022-09-22T21:46:41.745Z,7.20
2022-09-22T21:48:43.571Z,7.20
2022-09-22T21:50:45.196Z,7.20
2022-09-22T21:52:46.777Z,7.30
2022-09-22T21:54:50.602Z,7.10
2022-09-22T21:56:52.240Z,7.10
2022-09-22T21:58:54.301Z,7.00
2022-09-22T22:00:56.387Z,7.00
2022-09-22T22:03:16.411Z,7.00
2022-09-22T22:05:18.049Z,7.00
2022-09-22T22:07:19.821Z,7.00
2022-09-22T22:09:22.395Z,7.20
2022-09-22T22:11:24.870Z,7.00
2022-09-22T22:13:26.476Z,6.90
2022-09-22T22:15:28.313Z,6.80
2022-09-22T22:17:29.968Z,6.80
2022-09-22T22:19:31.547Z,6.80
2022-09-22T22:21:33.697Z,6.80
2022-09-22T22:23:36.669Z,6.70
2022-09-22T22:25:38.928Z,6.80
2022-09-22T22:27:40.847Z,6.80
2022-09-22T22:29:42.703Z,6.70
2022-09-22T22:31:44.722Z,6.70
2022-09-22T22:33:47.135Z,6.60
2022-09-22T22:35:57.930Z,6.70
2022-09-22T22:37:59.512Z,6.60
2022-09-22T22:40:01.281Z,6.60
2022-09-22T22:42:02.955Z,6.60
2022-09-22T22:44:05.107Z,6.50
2022-09-22T22:46:07.386Z,6.50
2022-09-22T22:48:09.182Z,6.50
2022-09-22T22:50:10.792Z,6.50
2022-09-22T22:52:12.507Z,6.50
2022-09-22T22:54:14.483Z,6.40
2022-09-22T22:56:20.683Z,6.40
2022-09-22T22:58:23.167Z,6.40
2022-09-22T23:00:24.810Z,6.40
2022-09-22T23:02:29.584Z,6.30
2022-09-22T23:04:31.172Z,6.30
2022-09-22T23:06:35.752Z,6.30
2022-09-22T23:08:37.426Z,6.50
2022-09-22T23:10:39.074Z,6.30
2022-09-22T23:12:40.724Z,6.30
2022-09-22T23:14:42.321Z,6.30
2022-09-22T23:16:45.461Z,6.20
2022-09-22T23:18:47.706Z,6.20
2022-09-22T23:20:50.148Z,6.20
2022-09-22T23:22:51.742Z,6.20
2022-09-22T23:24:53.930Z,6.10
2022-09-22T23:26:55.850Z,6.20
2022-09-22T23:29:01.960Z,6.20
2022-09-22T23:31:08.842Z,6.10
2022-09-22T23:33:11.284Z,6.00
2022-09-22T23:35:12.918Z,6.10
2022-09-22T23:37:14.536Z,6.00
2022-09-22T23:39:16.244Z,6.00
2022-09-22T23:41:19.732Z,6.00
2022-09-22T23:43:22.341Z,5.90
2022-09-22T23:45:24.198Z,5.90
2022-09-22T23:47:25.867Z,5.90
2022-09-22T23:49:27.445Z,6.00
2022-09-22T23:51:29.270Z,5.90
2022-09-22T23:53:32.716Z,5.80
2022-09-22T23:55:34.444Z,5.80
2022-09-22T23:57:39.154Z,5.80
2022-09-22T23:59:40.809Z,5.80
